createdAt,value
2023-03-21T00:01:58.972Z,72.60
2023-03-21T00:04:33.163Z,76.80
2023-03-21T00:07:06.736Z,84.30
2023-03-21T00:09:34.923Z,85.80
2023-03-21T00:12:09.948Z,78.80
2023-03-21T00:14:40.176Z,82.30
2023-03-21T00:17:10.942Z,84.70
2023-03-21T00:19:39.200Z,84.10
2023-03-21T00:22:09.133Z,83.20
2023-03-21T00:24:37.631Z,72.00
2023-03-21T00:29:57.096Z,73.50
2023-03-21T00:32:27.423Z,91.30
2023-03-21T00:35:16.478Z,86.50
2023-03-21T00:37:49.036Z,83.70
2023-03-21T00:40:26.772Z,85.80
2023-03-21T00:42:59.318Z,68.00
2023-03-21T00:45:27.996Z,81.40
2023-03-21T00:47:56.653Z,82.00
2023-03-21T00:50:27.833Z,104.60
2023-03-21T00:52:58.383Z,100.10
2023-03-21T00:55:28.105Z,130.80
2023-03-21T00:58:02.069Z,134.80
2023-03-21T01:00:30.948Z,146.20
2023-03-21T01:03:17.447Z,165.40
2023-03-21T01:06:07.588Z,161.90
2023-03-21T01:08:51.156Z,143.20
2023-03-21T01:11:23.415Z,116.70
2023-03-21T01:13:57.928Z,108.60
2023-03-21T01:16:30.526Z,89.80
2023-03-21T01:18:59.848Z,82.80
2023-03-21T01:21:28.229Z,86.10
2023-03-21T01:23:56.337Z,79.60
2023-03-21T01:26:24.410Z,78.70
2023-03-21T01:28:53.002Z,74.10
2023-03-21T01:31:21.370Z,73.40
2023-03-21T01:33:49.771Z,68.00
2023-03-21T01:36:22.895Z,60.40
2023-03-21T01:38:52.926Z,58.70
2023-03-21T01:41:43.991Z,56.20
2023-03-21T01:44:54.322Z,49.30
2023-03-21T01:47:23.233Z,42.60
2023-03-21T01:50:18.101Z,45.30
2023-03-21T01:53:13.397Z,38.80
2023-03-21T01:55:43.072Z,38.60
2023-03-21T01:58:24.491Z,75.80
2023-03-21T02:01:07.467Z,91.20
2023-03-21T02:03:50.763Z,94.20
2023-03-21T02:06:58.617Z,96.30
2023-03-21T02:09:48.489Z,94.60
2023-03-21T02:12:25.977Z,87.00
2023-03-21T02:14:57.330Z,104.50
2023-03-21T02:18:03.388Z,96.60
2023-03-21T02:21:07.709Z,88.40
2023-03-21T02:24:13.726Z,103.20
2023-03-21T02:27:04.930Z,87.30
2023-03-21T02:30:26.478Z,98.50
2023-03-21T02:33:03.085Z,100.00
2023-03-21T02:35:56.703Z,101.60
2023-03-21T02:38:31.608Z,92.10
2023-03-21T02:41:17.934Z,102.20
2023-03-21T02:43:52.637Z,96.30
2023-03-21T02:46:24.309Z,89.80
2023-03-21T02:49:03.619Z,109.20
2023-03-21T02:51:32.203Z,103.60
2023-03-21T02:56:56.129Z,102.80
2023-03-21T02:59:25.473Z,92.10
2023-03-21T03:01:55.205Z,99.40
2023-03-21T03:04:29.476Z,99.00
2023-03-21T03:07:12.336Z,104.70
2023-03-21T03:09:44.005Z,90.50
2023-03-21T03:12:25.454Z,89.40
2023-03-21T03:15:17.905Z,80.40
2023-03-21T03:17:55.689Z,78.70
2023-03-21T03:20:44.596Z,86.10
2023-03-21T03:23:21.363Z,84.90
2023-03-21T03:25:52.604Z,94.00
2023-03-21T03:28:25.176Z,87.90
2023-03-21T03:31:08.085Z,89.80
2023-03-21T03:33:42.064Z,77.30
2023-03-21T03:36:21.430Z,88.20
2023-03-21T03:38:53.644Z,77.60
2023-03-21T03:41:26.077Z,78.70
2023-03-21T03:43:59.095Z,75.60
2023-03-21T03:46:36.571Z,65.90
2023-03-21T03:49:08.207Z,68.60
2023-03-21T03:52:04.806Z,68.40
2023-03-21T03:54:47.531Z,77.80
2023-03-21T03:57:16.250Z,81.90
2023-03-21T03:59:46.550Z,74.10
2023-03-21T04:02:27.456Z,75.80
2023-03-21T04:04:57.893Z,71.40
2023-03-21T04:07:27.999Z,70.30
2023-03-21T04:10:01.339Z,69.00
2023-03-21T04:12:30.150Z,68.60
2023-03-21T04:15:19.484Z,72.30
2023-03-21T04:17:51.575Z,70.60
2023-03-21T04:20:34.201Z,69.10
2023-03-21T04:23:06.765Z,67.20
2023-03-21T04:25:36.994Z,95.30
2023-03-21T04:28:07.010Z,95.20
2023-03-21T04:31:03.784Z,93.60
2023-03-21T04:33:44.502Z,91.90
2023-03-21T04:36:25.111Z,75.00
2023-03-21T04:38:55.084Z,68.70
2023-03-21T04:41:23.400Z,68.80
2023-03-21T04:43:56.044Z,73.80
2023-03-21T04:46:24.740Z,85.40
2023-03-21T04:48:53.036Z,84.50
2023-03-21T04:51:21.209Z,69.80
2023-03-21T04:53:49.678Z,36.60
2023-03-21T04:56:20.630Z,42.00
2023-03-21T04:58:48.928Z,44.50
2023-03-21T05:01:20.238Z,51.10
2023-03-21T05:03:52.767Z,36.30
2023-03-21T05:06:21.265Z,40.70
2023-03-21T05:08:51.541Z,33.90
2023-03-21T05:11:20.334Z,35.00
2023-03-21T05:13:49.279Z,37.10
2023-03-21T05:16:17.422Z,40.70
2023-03-21T05:18:50.801Z,29.60
2023-03-21T05:21:20.518Z,35.40
2023-03-21T05:23:55.053Z,41.60
2023-03-21T05:26:24.827Z,44.30
2023-03-21T05:29:09.205Z,32.90
2023-03-21T05:31:37.847Z,38.40
2023-03-21T05:34:08.728Z,39.50
2023-03-21T05:36:40.176Z,43.50
2023-03-21T05:39:09.697Z,36.70
2023-03-21T05:41:41.693Z,40.30
2023-03-21T05:44:10.306Z,29.20
2023-03-21T05:46:40.007Z,31.90
2023-03-21T05:49:12.480Z,30.60
2023-03-21T05:51:42.458Z,33.60
2023-03-21T05:54:16.806Z,32.20
2023-03-21T05:56:48.382Z,31.20
2023-03-21T05:59:26.230Z,25.50
2023-03-21T06:01:55.104Z,27.40
2023-03-21T06:04:24.364Z,26.70
2023-03-21T06:06:53.983Z,27.80
2023-03-21T06:09:26.657Z,31.00
2023-03-21T06:11:58.700Z,35.90
2023-03-21T06:14:27.182Z,34.20
2023-03-21T06:17:25.549Z,30.40
2023-03-21T06:19:58.537Z,27.40
2023-03-21T06:22:33.570Z,26.40
2023-03-21T06:25:04.144Z,27.00
2023-03-21T06:27:32.745Z,31.90
2023-03-21T06:30:08.766Z,32.20
2023-03-21T06:32:44.854Z,31.20
2023-03-21T06:35:15.645Z,30.20
2023-03-21T06:37:46.279Z,29.50
2023-03-21T06:40:15.180Z,31.80
2023-03-21T06:42:43.739Z,38.30
2023-03-21T06:45:12.549Z,41.00
2023-03-21T06:47:41.870Z,36.70
2023-03-21T06:50:22.984Z,39.30
2023-03-21T06:52:53.424Z,35.20
2023-03-21T06:55:26.299Z,31.00
2023-03-21T06:57:56.285Z,38.90
2023-03-21T07:00:27.650Z,33.20
2023-03-21T07:02:56.924Z,31.60
2023-03-21T07:05:27.579Z,39.30
2023-03-21T07:07:56.464Z,36.20
2023-03-21T07:10:25.767Z,41.00
2023-03-21T07:13:00.399Z,35.40
2023-03-21T07:15:41.562Z,33.50
2023-03-21T07:18:09.767Z,35.80
2023-03-21T07:20:38.741Z,39.70
2023-03-21T07:23:07.542Z,35.20
2023-03-21T07:25:36.201Z,31.10
2023-03-21T07:28:09.259Z,31.40
2023-03-21T07:30:42.733Z,34.30
2023-03-21T07:33:11.657Z,41.70
2023-03-21T07:35:40.450Z,35.50
2023-03-21T07:38:11.143Z,31.30
2023-03-21T07:40:39.526Z,34.20
2023-03-21T07:43:08.219Z,29.40
2023-03-21T07:45:42.765Z,30.30
2023-03-21T07:48:17.778Z,41.00
2023-03-21T07:50:46.715Z,33.20
2023-03-21T07:53:15.059Z,39.90
2023-03-21T07:55:43.681Z,36.90
2023-03-21T07:58:17.028Z,38.90
2023-03-21T08:00:45.698Z,39.20
2023-03-21T08:03:14.016Z,34.60
2023-03-21T08:05:47.051Z,30.00
2023-03-21T08:08:15.991Z,29.00
2023-03-21T08:10:44.613Z,31.50
2023-03-21T08:13:13.186Z,38.70
2023-03-21T08:15:42.578Z,30.00
2023-03-21T08:18:11.458Z,32.80
2023-03-21T08:20:42.038Z,40.30
2023-03-21T08:23:10.557Z,30.90
2023-03-21T08:25:39.869Z,38.00
2023-03-21T08:28:08.395Z,38.20
2023-03-21T08:30:36.778Z,41.10
2023-03-21T08:33:07.656Z,36.20
2023-03-21T08:35:46.895Z,37.00
2023-03-21T08:38:15.468Z,31.30
2023-03-21T08:40:43.912Z,36.10
2023-03-21T08:43:14.914Z,38.10
2023-03-21T08:45:43.740Z,43.60
2023-03-21T08:48:12.005Z,36.40
2023-03-21T08:50:41.652Z,41.10
2023-03-21T08:53:09.999Z,34.70
2023-03-21T08:55:39.383Z,35.30
2023-03-21T08:58:08.026Z,34.40
2023-03-21T09:00:36.909Z,38.60
2023-03-21T09:03:05.703Z,33.00
2023-03-21T09:05:34.138Z,37.70
2023-03-21T09:08:05.908Z,36.20
2023-03-21T09:10:34.125Z,33.70
2023-03-21T09:13:02.832Z,27.40
2023-03-21T09:15:32.056Z,27.00
2023-03-21T09:18:13.553Z,32.20
2023-03-21T09:20:47.505Z,34.70
2023-03-21T09:23:15.895Z,29.50
2023-03-21T09:25:45.542Z,32.30
2023-03-21T09:28:14.628Z,39.70
2023-03-21T09:30:42.781Z,35.30
2023-03-21T09:33:21.332Z,36.40
2023-03-21T09:35:52.125Z,36.40
2023-03-21T09:38:20.937Z,37.10
2023-03-21T09:41:10.090Z,28.30
2023-03-21T09:43:44.611Z,31.90
2023-03-21T09:46:35.831Z,27.50
2023-03-21T09:49:16.780Z,26.90
2023-03-21T09:51:49.057Z,26.80
2023-03-21T09:54:29.753Z,30.50
2023-03-21T09:56:59.591Z,33.00
2023-03-21T09:59:40.195Z,32.50
2023-03-21T10:02:38.964Z,37.50
2023-03-21T10:05:23.688Z,23.10
2023-03-21T10:07:59.177Z,28.10
2023-03-21T10:10:36.248Z,25.60
2023-03-21T10:13:33.363Z,27.70
2023-03-21T10:16:11.241Z,30.10
2023-03-21T10:18:39.477Z,25.80
2023-03-21T10:21:37.365Z,21.20
2023-03-21T10:24:05.209Z,20.70
2023-03-21T10:26:33.476Z,18.30
2023-03-21T10:29:02.193Z,18.80
2023-03-21T10:31:31.539Z,20.80
2023-03-21T10:34:10.291Z,18.90
2023-03-21T10:36:39.512Z,21.20
2023-03-21T10:39:41.756Z,24.10
2023-03-21T10:42:18.193Z,23.00
2023-03-21T10:47:23.263Z,19.90
2023-03-21T10:50:09.170Z,22.60
2023-03-21T10:53:00.646Z,18.20
2023-03-21T10:55:35.054Z,27.30
2023-03-21T10:58:12.503Z,20.60
2023-03-21T11:00:43.518Z,22.10
2023-03-21T11:03:23.264Z,18.70
2023-03-21T11:06:18.052Z,18.50
2023-03-21T11:08:51.472Z,30.60
2023-03-21T11:11:27.931Z,19.80
2023-03-21T11:14:01.333Z,29.30
2023-03-21T11:16:39.012Z,21.20
2023-03-21T11:19:18.274Z,19.10
2023-03-21T11:21:46.529Z,21.70
2023-03-21T11:24:16.342Z,17.80
2023-03-21T11:26:47.014Z,19.40
2023-03-21T11:29:36.236Z,22.70
2023-03-21T11:32:26.360Z,17.10
2023-03-21T11:35:02.390Z,19.00
2023-03-21T11:37:37.104Z,16.20
2023-03-21T11:40:23.442Z,21.20
2023-03-21T11:42:58.946Z,31.10
2023-03-21T11:45:36.874Z,18.50
2023-03-21T11:48:12.836Z,19.40
2023-03-21T11:50:46.603Z,19.50
2023-03-21T11:53:32.694Z,23.90
2023-03-21T11:56:24.075Z,19.90
2023-03-21T11:59:05.047Z,14.10
2023-03-21T12:01:57.519Z,17.40
2023-03-21T12:04:27.368Z,17.50
2023-03-21T12:07:19.884Z,15.60
2023-03-21T12:10:18.047Z,16.30
2023-03-21T12:13:26.089Z,12.20
2023-03-21T12:16:26.533Z,15.90
2023-03-21T12:19:23.268Z,17.40
2023-03-21T12:22:04.318Z,19.40
2023-03-21T12:24:39.083Z,15.60
2023-03-21T12:27:42.165Z,19.00
2023-03-21T12:30:16.861Z,21.70
2023-03-21T12:33:27.230Z,16.40
2023-03-21T12:36:18.260Z,20.90
2023-03-21T12:39:09.796Z,17.60
2023-03-21T12:41:44.261Z,16.00
2023-03-21T12:44:16.400Z,15.10
2023-03-21T12:46:56.675Z,17.70
2023-03-21T12:49:31.509Z,12.30
2023-03-21T12:52:06.916Z,14.30
2023-03-21T12:54:46.414Z,15.10
2023-03-21T12:57:31.009Z,14.80
2023-03-21T13:00:30.721Z,12.80
2023-03-21T13:03:00.771Z,14.10
2023-03-21T13:05:32.226Z,13.50
2023-03-21T13:08:30.035Z,17.50
2023-03-21T13:11:00.181Z,18.00
2023-03-21T13:13:45.933Z,20.30
2023-03-21T13:16:22.110Z,17.10
2023-03-21T13:19:09.057Z,11.40
2023-03-21T13:21:43.632Z,15.80
2023-03-21T13:24:17.740Z,12.20
2023-03-21T13:26:57.688Z,13.80
2023-03-21T13:29:27.449Z,16.40
2023-03-21T13:31:57.932Z,13.60
2023-03-21T13:34:26.968Z,14.70
2023-03-21T13:37:00.947Z,14.90
2023-03-21T13:39:29.534Z,13.30
2023-03-21T13:42:03.031Z,12.30
2023-03-21T13:44:36.333Z,17.30
2023-03-21T13:47:06.253Z,13.00
2023-03-21T13:49:38.250Z,9.90
2023-03-21T13:52:11.202Z,15.00
2023-03-21T13:54:49.822Z,14.50
2023-03-21T13:57:27.086Z,10.90
2023-03-21T14:00:21.948Z,12.50
2023-03-21T14:03:08.225Z,9.90
2023-03-21T14:05:37.904Z,14.00
2023-03-21T14:08:19.305Z,10.70
2023-03-21T14:10:59.134Z,12.20
2023-03-21T14:13:28.513Z,11.00
2023-03-21T14:16:04.137Z,10.10
2023-03-21T14:18:53.501Z,12.60
2023-03-21T14:21:29.713Z,15.60
2023-03-21T14:24:12.746Z,17.30
2023-03-21T14:26:45.974Z,15.40
2023-03-21T14:29:26.102Z,11.80
2023-03-21T14:31:56.583Z,12.60
2023-03-21T14:34:27.259Z,15.10
2023-03-21T14:36:58.537Z,11.10
2023-03-21T14:39:31.473Z,16.20
2023-03-21T14:42:03.056Z,15.40
2023-03-21T14:44:53.340Z,13.20
2023-03-21T14:49:51.717Z,18.90
2023-03-21T14:52:24.131Z,15.00
2023-03-21T14:54:52.771Z,15.10
2023-03-21T14:57:25.019Z,16.70
2023-03-21T14:59:54.244Z,18.40
2023-03-21T15:02:31.565Z,15.40
2023-03-21T15:05:10.056Z,13.60
2023-03-21T15:07:39.987Z,16.10
2023-03-21T15:10:16.601Z,14.60
2023-03-21T15:12:52.578Z,16.20
2023-03-21T15:15:24.296Z,19.70
2023-03-21T15:17:54.887Z,24.10
2023-03-21T15:20:26.478Z,19.60
2023-03-21T15:22:56.385Z,24.40
2023-03-21T15:25:29.231Z,15.60
2023-03-21T15:27:58.165Z,15.60
2023-03-21T15:30:30.714Z,21.00
2023-03-21T15:33:06.494Z,18.40
2023-03-21T15:35:40.625Z,22.30
2023-03-21T15:38:29.668Z,18.60
2023-03-21T15:41:20.482Z,15.90
2023-03-21T15:44:01.809Z,25.50
2023-03-21T15:46:43.869Z,16.90
2023-03-21T15:49:14.942Z,20.70
2023-03-21T15:52:01.862Z,20.40
2023-03-21T15:54:33.202Z,31.80
2023-03-21T15:57:04.847Z,38.40
2023-03-21T15:59:40.005Z,30.30
2023-03-21T16:02:20.360Z,24.60
2023-03-21T16:05:23.942Z,25.20
2023-03-21T16:07:52.232Z,24.60
2023-03-21T16:10:28.795Z,26.60
2023-03-21T16:12:58.335Z,25.60
2023-03-21T16:15:26.908Z,25.40
2023-03-21T16:18:05.402Z,33.00
2023-03-21T16:20:41.098Z,32.70
2023-03-21T16:23:12.044Z,33.90
2023-03-21T16:25:42.869Z,28.00
2023-03-21T16:28:17.470Z,39.00
2023-03-21T16:30:45.856Z,48.00
2023-03-21T16:33:14.733Z,55.50
2023-03-21T16:35:43.660Z,51.70
2023-03-21T16:38:12.603Z,55.80
2023-03-21T16:40:43.399Z,44.90
2023-03-21T16:43:11.988Z,46.50
2023-03-21T16:45:40.539Z,50.50
2023-03-21T16:48:16.127Z,44.60
2023-03-21T16:50:46.953Z,41.50
2023-03-21T16:53:17.082Z,38.60
2023-03-21T16:55:46.381Z,33.00
2023-03-21T16:58:22.009Z,37.50
2023-03-21T17:00:51.216Z,51.30
2023-03-21T17:03:19.666Z,41.60
2023-03-21T17:05:49.718Z,57.50
2023-03-21T17:08:19.636Z,66.30
2023-03-21T17:10:47.783Z,50.00
2023-03-21T17:13:16.137Z,49.20
2023-03-21T17:15:44.491Z,39.10
2023-03-21T17:18:16.504Z,36.80
2023-03-21T17:20:46.732Z,30.20
2023-03-21T17:23:15.666Z,27.60
2023-03-21T17:25:43.947Z,23.50
2023-03-21T17:28:12.108Z,36.20
2023-03-21T17:30:40.966Z,34.10
2023-03-21T17:33:10.834Z,43.20
2023-03-21T17:35:39.077Z,44.00
2023-03-21T17:38:07.286Z,36.10
2023-03-21T17:40:35.669Z,29.70
2023-03-21T17:43:13.605Z,24.50
2023-03-21T17:45:41.948Z,25.20
2023-03-21T17:48:10.743Z,25.80
2023-03-21T17:50:41.922Z,26.40
2023-03-21T17:53:10.497Z,20.50
2023-03-21T17:55:40.012Z,22.70
2023-03-21T17:58:08.308Z,26.90
2023-03-21T18:00:37.180Z,22.00
2023-03-21T18:03:06.167Z,19.80
2023-03-21T18:05:34.436Z,24.20
2023-03-21T18:08:10.354Z,19.10
2023-03-21T18:10:41.156Z,21.30
2023-03-21T18:13:09.882Z,19.90
2023-03-21T18:15:44.223Z,22.70
2023-03-21T18:18:14.262Z,21.00
2023-03-21T18:20:53.031Z,21.70
2023-03-21T18:23:22.304Z,22.80
2023-03-21T18:25:52.732Z,21.40
2023-03-21T18:28:27.671Z,21.20
2023-03-21T18:31:09.505Z,19.90
2023-03-21T18:33:40.691Z,19.40
2023-03-21T18:36:09.869Z,22.30
2023-03-21T18:38:39.826Z,17.80
2023-03-21T18:41:08.924Z,21.20
2023-03-21T18:44:01.133Z,19.90
2023-03-21T18:46:25.998Z,24.60
2023-03-21T18:48:55.252Z,31.00
2023-03-21T18:51:24.361Z,22.80
2023-03-21T18:53:53.318Z,26.30
2023-03-21T18:57:20.114Z,25.20
2023-03-21T18:59:12.542Z,23.80
2023-03-21T19:01:41.219Z,22.30
2023-03-21T19:04:21.301Z,22.60
2023-03-21T19:06:54.578Z,20.00
2023-03-21T19:09:29.466Z,20.60
2023-03-21T19:12:01.064Z,20.50
2023-03-21T19:14:29.542Z,21.40
2023-03-21T19:19:47.959Z,28.90
2023-03-21T19:22:16.919Z,22.90
2023-03-21T19:24:45.172Z,20.10
2023-03-21T19:27:14.864Z,20.70
2023-03-21T19:29:43.375Z,25.10
2023-03-21T19:32:12.940Z,19.00
2023-03-21T19:34:42.151Z,21.90
2023-03-21T19:37:10.292Z,18.90
2023-03-21T19:39:39.279Z,19.30
2023-03-21T19:42:16.818Z,19.20
2023-03-21T19:44:46.258Z,21.60
2023-03-21T19:47:15.508Z,23.30
2023-03-21T19:52:34.453Z,19.40
2023-03-21T19:55:02.601Z,24.00
2023-03-21T19:57:34.820Z,21.90
2023-03-21T20:00:04.537Z,19.90
2023-03-21T20:02:36.982Z,21.40
2023-03-21T20:05:08.977Z,20.10
2023-03-21T20:07:37.525Z,17.80
2023-03-21T20:10:08.642Z,20.60
2023-03-21T20:12:37.886Z,20.10
2023-03-21T20:15:17.288Z,20.90
2023-03-21T20:17:48.356Z,16.50
2023-03-21T20:20:18.438Z,24.50
2023-03-21T20:25:41.232Z,18.90
2023-03-21T20:28:16.202Z,18.80
2023-03-21T20:30:56.997Z,17.30
2023-03-21T20:33:25.832Z,19.00
2023-03-21T20:36:38.003Z,16.80
2023-03-21T20:38:54.519Z,19.10
2023-03-21T20:41:23.066Z,18.40
2023-03-21T20:44:34.705Z,18.60
2023-03-21T20:46:42.270Z,20.70
2023-03-21T20:49:21.230Z,19.90
2023-03-21T20:54:38.392Z,22.90
2023-03-21T20:57:07.857Z,22.60
2023-03-21T20:59:36.343Z,16.50
2023-03-21T21:02:09.545Z,24.40
2023-03-21T21:04:52.873Z,17.20
2023-03-21T21:07:27.714Z,20.90
2023-03-21T21:09:57.924Z,25.80
2023-03-21T21:12:27.823Z,19.60
2023-03-21T21:14:56.848Z,21.50
2023-03-21T21:18:03.876Z,26.10
2023-03-21T21:20:17.684Z,28.40
2023-03-21T21:22:58.415Z,20.30
2023-03-21T21:25:30.895Z,18.00
2023-03-21T21:27:59.073Z,19.50
2023-03-21T21:30:31.787Z,18.20
2023-03-21T21:33:01.178Z,22.10
2023-03-21T21:35:29.804Z,20.00
2023-03-21T21:37:59.476Z,18.90
2023-03-21T21:40:27.792Z,21.60
2023-03-21T21:43:03.479Z,20.40
2023-03-21T21:45:32.624Z,21.00
2023-03-21T21:48:00.920Z,18.70
2023-03-21T21:50:30.744Z,29.90
2023-03-21T21:53:03.999Z,23.00
2023-03-21T21:55:34.221Z,20.20
2023-03-21T21:58:04.087Z,20.60
2023-03-21T22:00:32.773Z,21.20
2023-03-21T22:03:01.588Z,20.40
2023-03-21T22:05:30.929Z,20.40
2023-03-21T22:08:04.437Z,17.40
2023-03-21T22:10:34.297Z,34.80
2023-03-21T22:13:02.506Z,82.80
2023-03-21T22:15:34.880Z,60.30
2023-03-21T22:18:04.193Z,117.60
2023-03-21T22:20:34.201Z,91.50
2023-03-21T22:23:02.599Z,68.20
2023-03-21T22:25:33.242Z,34.80
2023-03-21T22:28:02.511Z,27.80
2023-03-21T22:30:31.221Z,47.10
2023-03-21T22:33:09.349Z,37.50
2023-03-21T22:35:42.187Z,34.50
2023-03-21T22:38:10.505Z,28.70
2023-03-21T22:40:39.148Z,30.20
2023-03-21T22:43:09.007Z,42.90
2023-03-21T22:45:37.473Z,34.40
2023-03-21T22:48:06.450Z,30.60
2023-03-21T22:50:35.692Z,36.10
2023-03-21T22:53:04.075Z,36.90
2023-03-21T22:55:32.664Z,36.40
2023-03-21T22:58:01.083Z,35.90
2023-03-21T23:00:29.814Z,32.00
2023-03-21T23:02:59.747Z,32.10
2023-03-21T23:05:28.605Z,37.90
2023-03-21T23:07:59.804Z,65.10
2023-03-21T23:10:28.993Z,53.10
2023-03-21T23:12:57.276Z,50.70
2023-03-21T23:15:31.848Z,42.30
2023-03-21T23:18:00.120Z,52.20
2023-03-21T23:20:28.358Z,44.30
2023-03-21T23:22:58.786Z,52.10
2023-03-21T23:25:29.160Z,46.60
2023-03-21T23:27:57.505Z,47.90
2023-03-21T23:30:25.986Z,34.10
2023-03-21T23:32:54.244Z,40.50
2023-03-21T23:35:22.572Z,27.40
2023-03-21T23:37:52.884Z,24.00
2023-03-21T23:40:21.328Z,28.70
2023-03-21T23:42:49.706Z,29.00
2023-03-21T23:45:17.928Z,31.50
2023-03-21T23:47:47.668Z,28.50
2023-03-21T23:50:16.643Z,29.20
2023-03-21T23:52:50.142Z,30.80
2023-03-21T23:55:18.539Z,30.30
2023-03-21T23:57:46.898Z,30.60
